createdAt,value
2022-12-22T00:01:55.300Z,0.40
2022-12-22T00:04:42.135Z,0.50
2022-12-22T00:07:27.403Z,0.40
2022-12-22T00:10:13.144Z,0.50
2022-12-22T00:12:58.360Z,0.53
2022-12-22T00:15:43.780Z,0.60
2022-12-22T00:18:34.315Z,0.50
2022-12-22T00:21:19.821Z,0.40
2022-12-22T00:24:05.339Z,0.43
2022-12-22T00:26:53.105Z,0.40
2022-12-22T00:29:38.919Z,0.47
2022-12-22T00:32:24.914Z,0.40
2022-12-22T00:35:10.528Z,0.40
2022-12-22T00:37:56.734Z,0.27
2022-12-22T00:40:46.075Z,0.30
2022-12-22T00:43:32.661Z,0.40
2022-12-22T00:46:21.076Z,0.30
2022-12-22T00:49:07.506Z,0.30
2022-12-22T00:51:53.218Z,0.30
2022-12-22T00:54:41.321Z,0.30
2022-12-22T00:57:35.090Z,0.40
2022-12-22T01:00:20.478Z,0.30
2022-12-22T01:03:07.998Z,0.20
2022-12-22T01:05:53.686Z,0.23
2022-12-22T01:08:38.871Z,0.30
2022-12-22T01:11:24.711Z,0.20
2022-12-22T01:14:10.105Z,0.20
2022-12-22T01:16:55.595Z,0.20
2022-12-22T01:19:40.788Z,0.40
2022-12-22T01:22:31.731Z,0.40
2022-12-22T01:25:17.012Z,0.30
2022-12-22T01:28:03.090Z,0.30
2022-12-22T01:30:48.611Z,0.20
2022-12-22T01:33:33.881Z,0.20
2022-12-22T01:36:19.176Z,0.33
2022-12-22T01:39:04.482Z,0.50
2022-12-22T01:41:49.748Z,0.60
2022-12-22T01:44:37.034Z,0.20
2022-12-22T01:47:50.081Z,0.20
2022-12-22T01:50:47.292Z,0.20
2022-12-22T01:53:37.615Z,0.10
2022-12-22T01:56:23.866Z,0.10
2022-12-22T01:59:13.462Z,0.17
2022-12-22T02:02:00.675Z,0.10
2022-12-22T02:04:51.952Z,0.20
2022-12-22T02:08:04.979Z,0.20
2022-12-22T02:10:59.012Z,0.20
2022-12-22T02:14:04.725Z,0.20
2022-12-22T02:17:02.372Z,0.10
2022-12-22T02:19:53.879Z,0.10
2022-12-22T02:22:42.250Z,0.10
2022-12-22T02:25:44.137Z,0.10
2022-12-22T02:28:31.792Z,0.20
2022-12-22T02:31:17.193Z,0.10
2022-12-22T02:34:02.669Z,0.10
2022-12-22T02:37:03.886Z,0.10
2022-12-22T02:40:05.483Z,0.10
2022-12-22T02:42:54.874Z,0.10
2022-12-22T02:46:05.268Z,0.10
2022-12-22T02:48:59.702Z,0.10
2022-12-22T02:51:48.293Z,0.10
2022-12-22T02:54:36.530Z,0.07
2022-12-22T02:57:25.754Z,0.10
2022-12-22T03:00:13.601Z,0.10
2022-12-22T03:02:59.500Z,0.20
2022-12-22T03:05:44.765Z,0.10
2022-12-22T03:08:30.209Z,0.17
2022-12-22T03:11:15.455Z,0.13
2022-12-22T03:14:00.923Z,0.10
2022-12-22T03:16:46.037Z,0.10
2022-12-22T03:19:31.706Z,0.63
2022-12-22T03:22:16.800Z,0.30
2022-12-22T03:25:02.478Z,0.30
2022-12-22T03:27:29.455Z,0.10
2022-12-22T03:29:56.211Z,0.10
2022-12-22T03:32:23.235Z,0.10
2022-12-22T03:34:49.919Z,0.10
2022-12-22T03:37:16.814Z,0.00
2022-12-22T03:39:43.568Z,0.10
2022-12-22T03:42:32.111Z,0.10
2022-12-22T03:45:17.500Z,0.10
2022-12-22T03:47:44.488Z,0.10
2022-12-22T03:50:11.417Z,0.10
2022-12-22T03:52:38.614Z,0.10
2022-12-22T03:55:05.827Z,0.10
2022-12-22T03:57:32.641Z,0.10
2022-12-22T03:59:59.488Z,0.10
2022-12-22T04:02:26.718Z,0.20
2022-12-22T04:04:53.581Z,0.10
2022-12-22T04:07:20.404Z,0.20
2022-12-22T04:10:05.689Z,0.10
2022-12-22T04:12:50.974Z,0.50
2022-12-22T04:15:18.042Z,0.30
2022-12-22T04:17:44.693Z,0.50
2022-12-22T04:20:11.984Z,0.60
2022-12-22T04:22:38.942Z,0.53
2022-12-22T04:25:06.182Z,0.33
2022-12-22T04:27:34.091Z,0.30
2022-12-22T04:30:00.801Z,0.20
2022-12-22T04:32:27.486Z,0.20
2022-12-22T04:34:54.680Z,0.10
2022-12-22T04:37:21.439Z,0.40
2022-12-22T04:39:48.173Z,0.20
2022-12-22T04:42:15.183Z,0.20
2022-12-22T04:44:41.908Z,0.10
2022-12-22T04:47:08.599Z,0.20
2022-12-22T04:49:35.787Z,0.10
2022-12-22T04:52:02.543Z,0.10
2022-12-22T04:54:29.214Z,0.27
2022-12-22T04:56:56.277Z,0.10
2022-12-22T04:59:23.026Z,0.30
2022-12-22T05:01:50.005Z,0.23
2022-12-22T05:04:23.355Z,0.30
2022-12-22T05:06:50.562Z,0.20
2022-12-22T05:09:17.290Z,0.30
2022-12-22T05:11:44.041Z,0.23
2022-12-22T05:14:10.754Z,0.20
2022-12-22T05:16:37.649Z,0.30
2022-12-22T05:19:04.468Z,0.20
2022-12-22T05:21:31.122Z,1.37
2022-12-22T05:23:58.924Z,0.50
2022-12-22T05:26:25.606Z,0.50
2022-12-22T05:28:52.694Z,0.23
2022-12-22T05:31:24.392Z,0.33
2022-12-22T05:33:51.823Z,0.20
2022-12-22T05:36:19.426Z,0.20
2022-12-22T05:38:46.318Z,0.20
2022-12-22T05:41:13.317Z,0.30
2022-12-22T05:43:41.316Z,0.30
2022-12-22T05:46:10.208Z,0.40
2022-12-22T05:48:39.336Z,0.40
2022-12-22T05:51:08.382Z,0.20
2022-12-22T05:53:35.945Z,0.43
2022-12-22T05:56:02.668Z,0.60
2022-12-22T05:58:29.535Z,0.30
2022-12-22T06:00:58.354Z,0.20
2022-12-22T06:03:26.525Z,0.20
2022-12-22T06:05:53.684Z,0.20
2022-12-22T06:08:20.916Z,0.30
2022-12-22T06:10:48.300Z,0.20
2022-12-22T06:13:15.025Z,0.10
2022-12-22T06:15:42.119Z,0.20
2022-12-22T06:18:08.956Z,0.20
2022-12-22T06:20:35.965Z,0.10
2022-12-22T06:23:03.233Z,0.10
2022-12-22T06:25:29.996Z,0.17
2022-12-22T06:27:56.907Z,0.10
2022-12-22T06:30:31.007Z,0.10
2022-12-22T06:33:01.068Z,0.10
2022-12-22T06:35:28.077Z,0.20
2022-12-22T06:37:54.703Z,0.10
2022-12-22T06:40:21.863Z,0.20
2022-12-22T06:43:09.127Z,0.10
2022-12-22T06:45:42.166Z,0.20
2022-12-22T06:48:10.139Z,0.23
2022-12-22T06:50:36.841Z,0.10
2022-12-22T06:53:04.752Z,0.10
2022-12-22T06:55:31.481Z,0.10
2022-12-22T06:57:58.543Z,0.10
2022-12-22T07:00:25.714Z,0.10
2022-12-22T07:02:53.007Z,0.10
2022-12-22T07:05:20.095Z,0.10
2022-12-22T07:07:47.161Z,0.10
2022-12-22T07:10:14.088Z,0.00
2022-12-22T07:12:41.260Z,0.10
2022-12-22T07:15:08.924Z,0.00
2022-12-22T07:17:35.808Z,0.10
2022-12-22T07:20:02.470Z,0.87
2022-12-22T07:22:30.725Z,0.20
2022-12-22T07:24:58.747Z,0.20
2022-12-22T07:27:25.696Z,0.20
2022-12-22T07:29:52.529Z,0.10
2022-12-22T07:32:19.223Z,0.17
2022-12-22T07:34:46.112Z,0.13
2022-12-22T07:37:14.016Z,0.10
2022-12-22T07:39:40.859Z,0.10
2022-12-22T07:42:26.413Z,0.10
2022-12-22T07:44:53.121Z,0.10
2022-12-22T07:47:20.072Z,0.20
2022-12-22T07:50:05.188Z,0.10
2022-12-22T07:52:31.953Z,0.10
2022-12-22T07:54:58.668Z,0.10
2022-12-22T07:57:26.410Z,0.10
2022-12-22T07:59:53.801Z,0.10
2022-12-22T08:02:20.600Z,0.20
2022-12-22T08:04:47.528Z,0.10
2022-12-22T08:07:14.223Z,0.20
2022-12-22T08:09:40.902Z,0.10
2022-12-22T08:12:07.698Z,0.13
2022-12-22T08:14:34.520Z,0.10
2022-12-22T08:17:01.238Z,0.20
2022-12-22T08:19:28.070Z,0.10
2022-12-22T08:21:54.728Z,0.10
2022-12-22T08:24:22.119Z,0.10
2022-12-22T08:26:53.242Z,0.20
2022-12-22T08:29:25.395Z,0.20
2022-12-22T08:31:54.108Z,0.10
2022-12-22T08:34:21.369Z,0.20
2022-12-22T08:36:51.440Z,0.30
2022-12-22T08:39:19.728Z,0.30
2022-12-22T08:41:52.630Z,0.20
2022-12-22T08:44:28.241Z,0.30
2022-12-22T08:46:57.071Z,0.27
2022-12-22T08:49:24.401Z,0.33
2022-12-22T08:51:51.446Z,0.37
2022-12-22T08:54:18.382Z,0.40
2022-12-22T08:56:45.769Z,0.50
2022-12-22T08:59:13.080Z,0.40
2022-12-22T09:01:44.221Z,0.50
2022-12-22T09:04:15.703Z,0.50
2022-12-22T09:06:42.453Z,0.60
2022-12-22T09:09:12.152Z,0.50
2022-12-22T09:11:40.262Z,0.53
2022-12-22T09:14:08.815Z,0.80
2022-12-22T09:16:36.320Z,0.80
2022-12-22T09:19:03.715Z,0.73
2022-12-22T09:21:30.814Z,0.90
2022-12-22T09:23:58.419Z,0.90
2022-12-22T09:26:27.557Z,0.80
2022-12-22T09:28:55.250Z,0.70
2022-12-22T09:31:24.375Z,0.67
2022-12-22T09:33:51.509Z,0.60
2022-12-22T09:36:21.146Z,0.67
2022-12-22T09:38:47.914Z,0.70
2022-12-22T09:41:31.826Z,0.80
2022-12-22T09:44:10.476Z,1.00
2022-12-22T09:46:38.541Z,0.83
2022-12-22T09:49:12.350Z,1.00
2022-12-22T09:51:46.446Z,1.07
2022-12-22T09:54:14.512Z,1.10
2022-12-22T09:56:41.468Z,1.20
2022-12-22T09:59:14.161Z,1.10
2022-12-22T10:02:00.309Z,1.20
2022-12-22T10:04:41.311Z,1.23
2022-12-22T10:07:21.697Z,1.20
2022-12-22T10:09:51.206Z,1.30
2022-12-22T10:12:22.950Z,1.37
2022-12-22T10:14:52.278Z,1.20
2022-12-22T10:17:34.158Z,1.47
2022-12-22T10:20:19.391Z,1.33
2022-12-22T10:22:58.651Z,1.10
2022-12-22T10:25:52.516Z,1.27
2022-12-22T10:28:26.995Z,1.10
2022-12-22T10:31:12.685Z,1.87
2022-12-22T10:33:46.423Z,1.30
2022-12-22T10:36:17.999Z,1.47
2022-12-22T10:39:19.823Z,1.60
2022-12-22T10:41:49.151Z,1.60
2022-12-22T10:44:15.804Z,2.57
2022-12-22T10:46:58.309Z,2.03
2022-12-22T10:52:30.977Z,1.80
2022-12-22T10:55:26.824Z,2.03
2022-12-22T10:58:09.974Z,1.93
2022-12-22T11:00:41.090Z,2.20
2022-12-22T11:03:12.104Z,1.87
2022-12-22T11:05:39.393Z,1.80
2022-12-22T11:08:18.902Z,6.03
2022-12-22T11:11:01.572Z,4.37
2022-12-22T11:13:42.387Z,3.07
2022-12-22T11:16:40.272Z,2.70
2022-12-22T11:19:40.934Z,2.80
2022-12-22T11:22:39.223Z,2.53
2022-12-22T11:25:22.943Z,2.70
2022-12-22T11:28:11.698Z,3.00
2022-12-22T11:30:51.280Z,2.60
2022-12-22T11:33:49.891Z,3.17
2022-12-22T11:36:50.185Z,3.17
2022-12-22T11:39:28.552Z,3.30
2022-12-22T11:41:59.233Z,3.13
2022-12-22T11:44:38.475Z,3.77
2022-12-22T11:47:36.775Z,3.93
2022-12-22T11:50:58.993Z,4.37
2022-12-22T11:53:07.125Z,4.37
2022-12-22T11:55:39.474Z,5.03
2022-12-22T11:58:30.850Z,4.77
2022-12-22T12:01:31.335Z,4.93
2022-12-22T12:04:46.954Z,4.33
2022-12-22T12:07:25.573Z,4.47
2022-12-22T12:10:07.136Z,5.00
2022-12-22T12:12:56.125Z,4.70
2022-12-22T12:15:38.872Z,4.30
2022-12-22T12:18:42.674Z,4.00
2022-12-22T12:21:12.273Z,4.73
2022-12-22T12:24:03.744Z,4.73
2022-12-22T12:26:35.022Z,4.70
2022-12-22T12:29:27.238Z,4.43
2022-12-22T12:32:01.342Z,5.17
2022-12-22T12:34:33.734Z,6.67
2022-12-22T12:37:07.685Z,4.83
2022-12-22T12:40:05.500Z,5.00
2022-12-22T12:42:41.991Z,4.27
2022-12-22T12:45:57.718Z,4.93
2022-12-22T12:48:24.441Z,4.60
2022-12-22T12:50:52.642Z,4.20
2022-12-22T12:53:24.491Z,4.50
2022-12-22T12:55:54.578Z,4.87
2022-12-22T12:58:37.821Z,4.87
2022-12-22T13:01:13.365Z,4.47
2022-12-22T13:06:51.082Z,4.97
2022-12-22T13:09:49.075Z,4.60
2022-12-22T13:12:39.063Z,4.43
2022-12-22T13:15:29.687Z,4.80
2022-12-22T13:17:57.442Z,4.70
2022-12-22T13:20:36.497Z,4.87
2022-12-22T13:23:11.054Z,4.97
2022-12-22T13:25:45.846Z,4.77
2022-12-22T13:28:16.932Z,5.40
2022-12-22T13:30:59.306Z,5.07
2022-12-22T13:33:30.897Z,5.60
2022-12-22T13:35:59.555Z,5.40
2022-12-22T13:38:35.678Z,5.70
2022-12-22T13:41:20.102Z,5.57
2022-12-22T13:44:04.350Z,5.63
2022-12-22T13:46:34.937Z,5.67
2022-12-22T13:49:04.733Z,6.30
2022-12-22T13:51:36.292Z,5.77
2022-12-22T13:54:18.735Z,5.90
2022-12-22T13:56:54.042Z,5.63
2022-12-22T13:59:35.281Z,6.07
2022-12-22T14:02:16.653Z,5.50
2022-12-22T14:05:08.705Z,5.27
2022-12-22T14:07:35.728Z,5.63
2022-12-22T14:10:02.736Z,5.00
2022-12-22T14:12:40.599Z,5.57
2022-12-22T14:15:17.309Z,5.40
2022-12-22T14:17:52.155Z,5.07
2022-12-22T14:20:28.969Z,4.70
2022-12-22T14:23:01.928Z,4.60
2022-12-22T14:25:41.331Z,4.97
2022-12-22T14:28:39.518Z,5.10
2022-12-22T14:31:07.421Z,5.30
2022-12-22T14:33:35.241Z,5.50
2022-12-22T14:36:20.725Z,5.33
2022-12-22T14:38:52.115Z,5.10
2022-12-22T14:41:39.721Z,5.10
2022-12-22T14:44:13.608Z,5.70
2022-12-22T14:46:41.438Z,6.43
2022-12-22T14:49:17.714Z,7.47
2022-12-22T14:51:59.100Z,6.37
2022-12-22T14:54:28.215Z,6.40
2022-12-22T14:57:02.426Z,6.30
2022-12-22T14:59:29.374Z,5.00
2022-12-22T15:02:01.474Z,5.27
2022-12-22T15:04:29.156Z,5.07
2022-12-22T15:07:30.080Z,5.17
2022-12-22T15:10:15.054Z,5.40
2022-12-22T15:12:44.493Z,5.97
2022-12-22T15:15:22.137Z,5.90
2022-12-22T15:17:52.984Z,4.93
2022-12-22T15:20:23.065Z,5.47
2022-12-22T15:22:50.086Z,5.10
2022-12-22T15:25:20.197Z,4.73
2022-12-22T15:27:47.030Z,5.73
2022-12-22T15:30:18.282Z,5.60
2022-12-22T15:32:45.669Z,4.97
2022-12-22T15:35:18.370Z,5.33
2022-12-22T15:37:45.305Z,5.20
2022-12-22T15:40:17.008Z,5.47
2022-12-22T15:42:44.076Z,4.70
2022-12-22T15:45:11.385Z,4.57
2022-12-22T15:47:38.804Z,4.67
2022-12-22T15:50:08.934Z,4.30
2022-12-22T15:52:35.691Z,4.73
2022-12-22T15:55:02.515Z,4.80
2022-12-22T15:57:29.924Z,4.50
2022-12-22T15:59:56.684Z,4.83
2022-12-22T16:02:23.651Z,8.43
2022-12-22T16:04:50.455Z,10.47
2022-12-22T16:07:17.338Z,9.10
2022-12-22T16:09:46.074Z,9.10
2022-12-22T16:12:18.397Z,7.73
2022-12-22T16:14:50.695Z,6.97
2022-12-22T16:17:21.029Z,7.83
2022-12-22T16:19:47.747Z,7.87
2022-12-22T16:22:17.506Z,8.67
2022-12-22T16:24:46.440Z,8.50
2022-12-22T16:27:13.894Z,8.13
2022-12-22T16:29:48.555Z,8.20
2022-12-22T16:32:28.497Z,7.63
2022-12-22T16:35:14.907Z,7.23
2022-12-22T16:37:42.096Z,7.23
2022-12-22T16:40:09.968Z,7.60
2022-12-22T16:45:28.640Z,8.03
2022-12-22T16:47:59.535Z,8.80
2022-12-22T16:50:32.739Z,9.43
2022-12-22T16:53:05.387Z,10.50
2022-12-22T16:55:33.583Z,10.00
2022-12-22T16:58:00.305Z,8.90
2022-12-22T17:00:30.267Z,8.93
2022-12-22T17:03:19.067Z,8.43
2022-12-22T17:05:53.087Z,7.30
2022-12-22T17:08:27.075Z,6.10
2022-12-22T17:10:56.546Z,6.00
2022-12-22T17:13:23.714Z,4.60
2022-12-22T17:15:50.765Z,3.60
2022-12-22T17:18:20.314Z,2.93
2022-12-22T17:20:50.313Z,2.70
2022-12-22T17:23:28.695Z,2.30
2022-12-22T17:25:55.834Z,2.30
2022-12-22T17:28:22.633Z,2.00
2022-12-22T17:30:49.520Z,1.70
2022-12-22T17:33:17.207Z,1.30
2022-12-22T17:35:45.579Z,1.17
2022-12-22T17:38:14.394Z,0.87
2022-12-22T17:40:42.427Z,0.90
2022-12-22T17:43:17.226Z,1.00
2022-12-22T17:45:46.011Z,0.70
2022-12-22T17:48:17.455Z,1.20
2022-12-22T17:50:49.439Z,0.93
2022-12-22T17:53:19.968Z,0.80
2022-12-22T17:58:35.162Z,0.67
2022-12-22T18:01:01.921Z,0.90
2022-12-22T18:03:28.753Z,0.87
2022-12-22T18:05:55.575Z,0.93
2022-12-22T18:08:22.625Z,0.90
2022-12-22T18:10:49.810Z,1.00
2022-12-22T18:13:26.375Z,0.90
2022-12-22T18:15:54.959Z,0.73
2022-12-22T18:18:21.984Z,0.73
2022-12-22T18:21:06.191Z,1.00
2022-12-22T18:23:36.540Z,0.90
2022-12-22T18:26:05.997Z,0.90
2022-12-22T18:28:32.733Z,1.20
2022-12-22T18:30:59.889Z,1.13
2022-12-22T18:33:26.579Z,1.67
2022-12-22T18:35:53.362Z,1.40
2022-12-22T18:38:28.225Z,0.90
2022-12-22T18:40:55.505Z,1.10
2022-12-22T18:43:22.646Z,1.77
2022-12-22T18:45:49.676Z,1.50
2022-12-22T18:48:16.567Z,1.20
2022-12-22T18:50:43.662Z,1.57
2022-12-22T18:53:43.008Z,3.00
2022-12-22T18:56:12.267Z,2.03
2022-12-22T18:58:40.231Z,1.80
2022-12-22T19:01:11.555Z,1.80
2022-12-22T19:03:38.569Z,1.87
2022-12-22T19:06:05.496Z,1.80
2022-12-22T19:08:32.200Z,2.10
2022-12-22T19:11:03.657Z,2.97
2022-12-22T19:13:35.305Z,2.30
2022-12-22T19:16:02.343Z,1.87
2022-12-22T19:18:29.243Z,2.40
2022-12-22T19:20:56.290Z,1.97
2022-12-22T19:23:24.749Z,2.23
2022-12-22T19:26:00.930Z,2.00
2022-12-22T19:28:37.475Z,2.30
2022-12-22T19:31:06.607Z,2.43
2022-12-22T19:33:43.036Z,1.97
2022-12-22T19:36:28.234Z,1.40
2022-12-22T19:39:03.316Z,1.70
2022-12-22T19:41:34.217Z,1.60
2022-12-22T19:44:01.135Z,1.60
2022-12-22T19:46:32.321Z,1.30
2022-12-22T19:48:59.607Z,1.40
2022-12-22T19:51:26.445Z,1.37
2022-12-22T19:53:54.234Z,1.43
2022-12-22T19:56:29.809Z,1.93
2022-12-22T19:58:58.429Z,1.90
2022-12-22T20:01:25.318Z,1.70
2022-12-22T20:03:52.857Z,1.83
2022-12-22T20:06:19.830Z,1.90
2022-12-22T20:08:46.827Z,2.13
2022-12-22T20:11:19.146Z,1.60
2022-12-22T20:13:47.323Z,2.00
2022-12-22T20:16:15.737Z,1.70
2022-12-22T20:18:43.866Z,2.13
2022-12-22T20:21:21.548Z,2.50
2022-12-22T20:23:48.692Z,2.17
2022-12-22T20:26:20.077Z,2.17
2022-12-22T20:28:47.408Z,2.00
2022-12-22T20:31:17.011Z,2.27
2022-12-22T20:33:43.961Z,2.00
2022-12-22T20:36:22.082Z,2.37
2022-12-22T20:38:52.036Z,2.10
2022-12-22T20:41:19.447Z,2.13
2022-12-22T20:43:46.290Z,2.63
2022-12-22T20:46:18.188Z,2.20
2022-12-22T20:48:49.097Z,2.57
2022-12-22T20:51:19.016Z,2.30
2022-12-22T20:53:46.848Z,2.43
2022-12-22T20:56:37.563Z,2.50
2022-12-22T20:59:14.677Z,2.67
2022-12-22T21:01:41.706Z,2.00
2022-12-22T21:04:08.538Z,2.50
2022-12-22T21:06:38.228Z,2.70
2022-12-22T21:09:05.111Z,1.90
2022-12-22T21:11:32.078Z,1.97
2022-12-22T21:13:59.402Z,2.43
2022-12-22T21:16:28.646Z,1.90
2022-12-22T21:18:55.924Z,2.07
2022-12-22T21:21:22.925Z,2.20
2022-12-22T21:23:49.978Z,1.97
2022-12-22T21:26:32.474Z,1.87
2022-12-22T21:29:01.483Z,2.10
2022-12-22T21:31:29.562Z,1.50
2022-12-22T21:33:56.513Z,1.77
2022-12-22T21:36:29.724Z,2.00
2022-12-22T21:39:01.532Z,1.70
2022-12-22T21:41:47.790Z,1.87
2022-12-22T21:44:15.047Z,1.60
2022-12-22T21:46:46.605Z,1.73
2022-12-22T21:49:22.917Z,1.50
2022-12-22T21:51:51.365Z,1.50
2022-12-22T21:54:20.124Z,1.50
2022-12-22T21:56:47.725Z,1.90
2022-12-22T21:59:14.727Z,1.93
2022-12-22T22:01:42.459Z,2.00
2022-12-22T22:04:10.035Z,1.90
2022-12-22T22:06:37.837Z,1.67
2022-12-22T22:09:05.857Z,1.50
2022-12-22T22:11:33.009Z,1.47
2022-12-22T22:14:00.277Z,1.30
2022-12-22T22:16:27.110Z,1.20
2022-12-22T22:18:54.027Z,1.30
2022-12-22T22:21:20.656Z,1.27
2022-12-22T22:23:47.518Z,1.13
2022-12-22T22:26:14.228Z,1.40
2022-12-22T22:28:41.109Z,1.60
2022-12-22T22:31:11.826Z,1.40
2022-12-22T22:33:38.975Z,1.10
2022-12-22T22:36:08.925Z,1.30
2022-12-22T22:38:36.000Z,1.40
2022-12-22T22:41:02.911Z,1.33
2022-12-22T22:43:29.750Z,1.20
2022-12-22T22:45:56.704Z,1.10
2022-12-22T22:48:23.792Z,1.00
2022-12-22T22:50:51.250Z,0.93
2022-12-22T22:53:18.039Z,0.80
2022-12-22T22:55:44.789Z,0.80
2022-12-22T22:58:11.717Z,0.83
2022-12-22T23:00:39.567Z,0.60
2022-12-22T23:03:06.416Z,0.60
2022-12-22T23:05:33.637Z,0.97
2022-12-22T23:08:00.660Z,0.60
2022-12-22T23:10:27.526Z,0.60
2022-12-22T23:12:55.014Z,0.70
2022-12-22T23:15:21.912Z,0.97
2022-12-22T23:17:51.608Z,0.90
2022-12-22T23:20:19.299Z,0.87
2022-12-22T23:22:45.947Z,1.20
2022-12-22T23:25:12.708Z,1.30
2022-12-22T23:27:39.533Z,1.10
2022-12-22T23:30:07.250Z,1.23
2022-12-22T23:32:34.008Z,1.20
2022-12-22T23:35:00.699Z,1.33
2022-12-22T23:37:27.642Z,0.90
2022-12-22T23:39:54.592Z,0.80
2022-12-22T23:42:22.703Z,1.07
2022-12-22T23:44:49.409Z,1.03
2022-12-22T23:47:16.196Z,1.07
2022-12-22T23:49:42.986Z,0.90
2022-12-22T23:52:09.777Z,0.73
2022-12-22T23:54:36.477Z,1.10
2022-12-22T23:57:03.624Z,0.80
2022-12-22T23:59:30.336Z,0.90
